sensor_id;sensor_type;location;lat;lon;timestamp;P1;durP1;ratioP1;P2;durP2;ratioP2
38717;SDS011;24468;52.128;9.278;2023-09-30T00:00:46;10.05;;;3.88;;
38717;SDS011;24468;52.128;9.278;2023-09-30T00:03:12;10.32;;;3.70;;
38717;SDS011;24468;52.128;9.278;2023-09-30T00:05:37;13.13;;;4.63;;
38717;SDS011;24468;52.128;9.278;2023-09-30T00:08:06;8.63;;;3.85;;
38717;SDS011;24468;52.128;9.278;2023-09-30T00:10:32;12.10;;;3.80;;
38717;SDS011;24468;52.128;9.278;2023-09-30T00:12:57;11.07;;;3.92;;
38717;SDS011;24468;52.128;9.278;2023-09-30T00:15:23;9.07;;;4.22;;
38717;SDS011;24468;52.128;9.278;2023-09-30T00:17:49;11.90;;;4.28;;
38717;SDS011;24468;52.128;9.278;2023-09-30T00:20:15;12.85;;;4.30;;
38717;SDS011;24468;52.128;9.278;2023-09-30T00:22:41;10.60;;;4.55;;
38717;SDS011;24468;52.128;9.278;2023-09-30T00:25:07;12.70;;;4.05;;
38717;SDS011;24468;52.128;9.278;2023-09-30T00:27:32;11.70;;;4.88;;
38717;SDS011;24468;52.128;9.278;2023-09-30T00:29:58;12.18;;;4.10;;
38717;SDS011;24468;52.128;9.278;2023-09-30T00:32:24;6.60;;;3.90;;
38717;SDS011;24468;52.128;9.278;2023-09-30T00:34:49;11.05;;;4.07;;
38717;SDS011;24468;52.128;9.278;2023-09-30T00:37:17;11.70;;;3.20;;
38717;SDS011;24468;52.128;9.278;2023-09-30T00:39:42;12.25;;;3.70;;
38717;SDS011;24468;52.128;9.278;2023-09-30T00:42:09;9.15;;;2.92;;
38717;SDS011;24468;52.128;9.278;2023-09-30T00:44:35;6.82;;;3.20;;
38717;SDS011;24468;52.128;9.278;2023-09-30T00:47:01;8.32;;;3.08;;
38717;SDS011;24468;52.128;9.278;2023-09-30T00:49:27;11.85;;;3.22;;
38717;SDS011;24468;52.128;9.278;2023-09-30T00:51:54;13.43;;;3.60;;
38717;SDS011;24468;52.128;9.278;2023-09-30T00:54:21;14.52;;;3.97;;
38717;SDS011;24468;52.128;9.278;2023-09-30T00:56:50;10.82;;;3.55;;
38717;SDS011;24468;52.128;9.278;2023-09-30T00:59:17;13.60;;;4.25;;
38717;SDS011;24468;52.128;9.278;2023-09-30T01:01:44;8.38;;;4.03;;
38717;SDS011;24468;52.128;9.278;2023-09-30T01:04:12;11.98;;;5.68;;
38717;SDS011;24468;52.128;9.278;2023-09-30T01:06:38;15.00;;;5.95;;
38717;SDS011;24468;52.128;9.278;2023-09-30T01:09:04;17.48;;;5.95;;
38717;SDS011;24468;52.128;9.278;2023-09-30T01:11:29;10.65;;;4.28;;
38717;SDS011;24468;52.128;9.278;2023-09-30T01:13:56;11.25;;;5.47;;
38717;SDS011;24468;52.128;9.278;2023-09-30T01:16:22;12.65;;;5.07;;
38717;SDS011;24468;52.128;9.278;2023-09-30T01:18:51;10.57;;;4.28;;
38717;SDS011;24468;52.128;9.278;2023-09-30T01:21:17;8.40;;;3.53;;
38717;SDS011;24468;52.128;9.278;2023-09-30T01:23:44;8.20;;;3.63;;
38717;SDS011;24468;52.128;9.278;2023-09-30T01:26:11;14.57;;;4.43;;
38717;SDS011;24468;52.128;9.278;2023-09-30T01:28:38;11.52;;;4.13;;
38717;SDS011;24468;52.128;9.278;2023-09-30T01:31:04;12.80;;;4.28;;
38717;SDS011;24468;52.128;9.278;2023-09-30T01:33:30;13.70;;;3.65;;
38717;SDS011;24468;52.128;9.278;2023-09-30T01:35:57;9.52;;;3.72;;
38717;SDS011;24468;52.128;9.278;2023-09-30T01:38:24;12.88;;;5.00;;
38717;SDS011;24468;52.128;9.278;2023-09-30T01:40:50;10.95;;;4.68;;
38717;SDS011;24468;52.128;9.278;2023-09-30T01:43:16;13.43;;;4.72;;
38717;SDS011;24468;52.128;9.278;2023-09-30T01:45:42;11.90;;;3.83;;
38717;SDS011;24468;52.128;9.278;2023-09-30T01:48:09;16.08;;;4.18;;
38717;SDS011;24468;52.128;9.278;2023-09-30T01:50:37;9.27;;;3.25;;
38717;SDS011;24468;52.128;9.278;2023-09-30T01:53:04;11.30;;;3.90;;
38717;SDS011;24468;52.128;9.278;2023-09-30T01:55:31;11.82;;;4.13;;
38717;SDS011;24468;52.128;9.278;2023-09-30T01:58:00;11.15;;;4.10;;
38717;SDS011;24468;52.128;9.278;2023-09-30T02:00:26;9.65;;;3.78;;
38717;SDS011;24468;52.128;9.278;2023-09-30T02:02:53;10.20;;;3.22;;
38717;SDS011;24468;52.128;9.278;2023-09-30T02:05:22;8.02;;;3.17;;
38717;SDS011;24468;52.128;9.278;2023-09-30T02:07:49;9.13;;;3.65;;
38717;SDS011;24468;52.128;9.278;2023-09-30T02:10:16;6.15;;;3.25;;
38717;SDS011;24468;52.128;9.278;2023-09-30T02:12:43;9.30;;;3.25;;
38717;SDS011;24468;52.128;9.278;2023-09-30T02:15:10;9.00;;;3.80;;
38717;SDS011;24468;52.128;9.278;2023-09-30T02:17:36;8.63;;;3.40;;
38717;SDS011;24468;52.128;9.278;2023-09-30T02:20:02;8.32;;;2.95;;
38717;SDS011;24468;52.128;9.278;2023-09-30T02:22:37;9.25;;;4.15;;
38717;SDS011;24468;52.128;9.278;2023-09-30T02:25:03;8.82;;;3.55;;
38717;SDS011;24468;52.128;9.278;2023-09-30T02:27:32;8.73;;;3.10;;
38717;SDS011;24468;52.128;9.278;2023-09-30T02:29:58;13.00;;;4.40;;
38717;SDS011;24468;52.128;9.278;2023-09-30T02:32:24;11.80;;;3.47;;
38717;SDS011;24468;52.128;9.278;2023-09-30T02:34:50;9.43;;;2.80;;
38717;SDS011;24468;52.128;9.278;2023-09-30T02:37:16;6.32;;;2.80;;
38717;SDS011;24468;52.128;9.278;2023-09-30T02:39:43;9.75;;;3.45;;
38717;SDS011;24468;52.128;9.278;2023-09-30T02:42:09;10.00;;;3.67;;
38717;SDS011;24468;52.128;9.278;2023-09-30T02:44:35;10.43;;;3.35;;
38717;SDS011;24468;52.128;9.278;2023-09-30T02:47:01;7.25;;;3.50;;
38717;SDS011;24468;52.128;9.278;2023-09-30T02:49:26;5.80;;;2.75;;
38717;SDS011;24468;52.128;9.278;2023-09-30T02:51:52;13.40;;;4.28;;
38717;SDS011;24468;52.128;9.278;2023-09-30T02:54:18;9.73;;;3.22;;
38717;SDS011;24468;52.128;9.278;2023-09-30T02:56:43;8.02;;;2.70;;
38717;SDS011;24468;52.128;9.278;2023-09-30T02:59:11;9.85;;;3.55;;
38717;SDS011;24468;52.128;9.278;2023-09-30T03:01:38;8.98;;;3.47;;
38717;SDS011;24468;52.128;9.278;2023-09-30T03:04:03;8.27;;;3.17;;
38717;SDS011;24468;52.128;9.278;2023-09-30T03:06:31;8.95;;;3.80;;
38717;SDS011;24468;52.128;9.278;2023-09-30T03:09:02;9.77;;;3.42;;
38717;SDS011;24468;52.128;9.278;2023-09-30T03:11:29;9.57;;;3.28;;
38717;SDS011;24468;52.128;9.278;2023-09-30T03:13:56;11.82;;;3.58;;
38717;SDS011;24468;52.128;9.278;2023-09-30T03:16:22;11.38;;;4.03;;
38717;SDS011;24468;52.128;9.278;2023-09-30T03:18:49;6.82;;;2.80;;
38717;SDS011;24468;52.128;9.278;2023-09-30T03:21:15;9.90;;;3.13;;
38717;SDS011;24468;52.128;9.278;2023-09-30T03:23:42;9.57;;;3.55;;
38717;SDS011;24468;52.128;9.278;2023-09-30T03:26:08;13.73;;;3.97;;
38717;SDS011;24468;52.128;9.278;2023-09-30T03:28:38;13.52;;;3.58;;
38717;SDS011;24468;52.128;9.278;2023-09-30T03:31:04;5.65;;;2.88;;
38717;SDS011;24468;52.128;9.278;2023-09-30T03:33:34;9.90;;;3.80;;
38717;SDS011;24468;52.128;9.278;2023-09-30T03:36:00;8.27;;;3.67;;
38717;SDS011;24468;52.128;9.278;2023-09-30T03:38:26;10.77;;;3.40;;
38717;SDS011;24468;52.128;9.278;2023-09-30T03:40:51;11.35;;;3.53;;
38717;SDS011;24468;52.128;9.278;2023-09-30T03:43:19;7.57;;;2.72;;
38717;SDS011;24468;52.128;9.278;2023-09-30T03:45:48;8.55;;;2.50;;
38717;SDS011;24468;52.128;9.278;2023-09-30T03:48:13;7.88;;;2.38;;
38717;SDS011;24468;52.128;9.278;2023-09-30T03:50:39;7.00;;;2.63;;
38717;SDS011;24468;52.128;9.278;2023-09-30T03:53:04;8.02;;;2.97;;
38717;SDS011;24468;52.128;9.278;2023-09-30T03:55:34;9.25;;;3.80;;
38717;SDS011;24468;52.128;9.278;2023-09-30T03:58:00;7.45;;;3.03;;
38717;SDS011;24468;52.128;9.278;2023-09-30T04:00:25;6.15;;;2.95;;
38717;SDS011;24468;52.128;9.278;2023-09-30T04:02:51;7.85;;;2.67;;
38717;SDS011;24468;52.128;9.278;2023-09-30T04:05:23;11.20;;;3.15;;
38717;SDS011;24468;52.128;9.278;2023-09-30T04:07:53;9.90;;;2.95;;
38717;SDS011;24468;52.128;9.278;2023-09-30T04:10:20;7.03;;;3.25;;
38717;SDS011;24468;52.128;9.278;2023-09-30T04:12:47;6.80;;;2.90;;
38717;SDS011;24468;52.128;9.278;2023-09-30T04:15:13;9.20;;;3.15;;
38717;SDS011;24468;52.128;9.278;2023-09-30T04:17:39;7.75;;;2.55;;
38717;SDS011;24468;52.128;9.278;2023-09-30T04:20:05;7.22;;;2.70;;
38717;SDS011;24468;52.128;9.278;2023-09-30T04:22:35;11.13;;;2.83;;
38717;SDS011;24468;52.128;9.278;2023-09-30T04:25:01;9.15;;;3.25;;
38717;SDS011;24468;52.128;9.278;2023-09-30T04:27:33;7.45;;;3.10;;
38717;SDS011;24468;52.128;9.278;2023-09-30T04:29:59;10.77;;;3.10;;
38717;SDS011;24468;52.128;9.278;2023-09-30T04:32:24;7.22;;;2.63;;
38717;SDS011;24468;52.128;9.278;2023-09-30T04:34:52;12.32;;;3.28;;
38717;SDS011;24468;52.128;9.278;2023-09-30T04:37:18;8.52;;;2.33;;
38717;SDS011;24468;52.128;9.278;2023-09-30T04:39:44;9.35;;;2.47;;
38717;SDS011;24468;52.128;9.278;2023-09-30T04:42:09;8.00;;;2.80;;
38717;SDS011;24468;52.128;9.278;2023-09-30T04:44:36;10.77;;;3.00;;
38717;SDS011;24468;52.128;9.278;2023-09-30T04:47:03;11.10;;;3.35;;
38717;SDS011;24468;52.128;9.278;2023-09-30T04:49:30;9.18;;;3.50;;
38717;SDS011;24468;52.128;9.278;2023-09-30T04:51:55;7.95;;;2.90;;
38717;SDS011;24468;52.128;9.278;2023-09-30T04:54:21;7.50;;;2.40;;
38717;SDS011;24468;52.128;9.278;2023-09-30T04:56:47;9.25;;;3.13;;
38717;SDS011;24468;52.128;9.278;2023-09-30T04:59:12;8.80;;;3.47;;
38717;SDS011;24468;52.128;9.278;2023-09-30T05:01:39;6.78;;;3.22;;
38717;SDS011;24468;52.128;9.278;2023-09-30T05:04:04;7.05;;;2.30;;
38717;SDS011;24468;52.128;9.278;2023-09-30T05:06:30;8.23;;;3.15;;
38717;SDS011;24468;52.128;9.278;2023-09-30T05:08:57;5.45;;;3.00;;
38717;SDS011;24468;52.128;9.278;2023-09-30T05:11:24;9.30;;;2.85;;
38717;SDS011;24468;52.128;9.278;2023-09-30T05:13:49;6.18;;;2.65;;
38717;SDS011;24468;52.128;9.278;2023-09-30T05:16:15;8.15;;;2.95;;
38717;SDS011;24468;52.128;9.278;2023-09-30T05:18:42;11.02;;;5.35;;
38717;SDS011;24468;52.128;9.278;2023-09-30T05:21:08;10.85;;;5.13;;
38717;SDS011;24468;52.128;9.278;2023-09-30T05:23:35;5.78;;;2.63;;
38717;SDS011;24468;52.128;9.278;2023-09-30T05:26:01;6.43;;;2.45;;
38717;SDS011;24468;52.128;9.278;2023-09-30T05:28:27;6.43;;;2.42;;
38717;SDS011;24468;52.128;9.278;2023-09-30T05:30:53;7.57;;;2.60;;
38717;SDS011;24468;52.128;9.278;2023-09-30T05:33:18;6.13;;;3.10;;
38717;SDS011;24468;52.128;9.278;2023-09-30T05:35:44;7.13;;;3.10;;
38717;SDS011;24468;52.128;9.278;2023-09-30T05:38:09;9.50;;;2.83;;
38717;SDS011;24468;52.128;9.278;2023-09-30T05:40:35;6.63;;;3.00;;
38717;SDS011;24468;52.128;9.278;2023-09-30T05:43:01;5.30;;;2.90;;
38717;SDS011;24468;52.128;9.278;2023-09-30T05:45:28;7.38;;;2.83;;
38717;SDS011;24468;52.128;9.278;2023-09-30T05:47:59;7.68;;;3.83;;
38717;SDS011;24468;52.128;9.278;2023-09-30T05:50:28;5.82;;;4.05;;
38717;SDS011;24468;52.128;9.278;2023-09-30T05:52:54;7.40;;;4.07;;
38717;SDS011;24468;52.128;9.278;2023-09-30T05:55:21;9.57;;;3.22;;
38717;SDS011;24468;52.128;9.278;2023-09-30T05:57:47;6.22;;;3.50;;
38717;SDS011;24468;52.128;9.278;2023-09-30T06:00:17;7.57;;;3.10;;
38717;SDS011;24468;52.128;9.278;2023-09-30T06:02:52;8.55;;;3.55;;
38717;SDS011;24468;52.128;9.278;2023-09-30T06:05:18;13.07;;;3.30;;
38717;SDS011;24468;52.128;9.278;2023-09-30T06:07:47;5.55;;;3.00;;
38717;SDS011;24468;52.128;9.278;2023-09-30T06:10:12;7.60;;;3.65;;
38717;SDS011;24468;52.128;9.278;2023-09-30T06:12:43;12.57;;;3.00;;
38717;SDS011;24468;52.128;9.278;2023-09-30T06:15:13;11.70;;;4.13;;
38717;SDS011;24468;52.128;9.278;2023-09-30T06:17:40;8.55;;;3.90;;
38717;SDS011;24468;52.128;9.278;2023-09-30T06:20:07;12.00;;;4.40;;
38717;SDS011;24468;52.128;9.278;2023-09-30T06:22:40;9.10;;;3.90;;
38717;SDS011;24468;52.128;9.278;2023-09-30T06:25:08;8.05;;;3.15;;
38717;SDS011;24468;52.128;9.278;2023-09-30T06:27:34;9.68;;;4.30;;
38717;SDS011;24468;52.128;9.278;2023-09-30T06:30:00;9.20;;;3.08;;
38717;SDS011;24468;52.128;9.278;2023-09-30T06:32:25;6.13;;;2.55;;
38717;SDS011;24468;52.128;9.278;2023-09-30T06:34:51;8.60;;;3.22;;
38717;SDS011;24468;52.128;9.278;2023-09-30T06:37:17;5.55;;;2.88;;
38717;SDS011;24468;52.128;9.278;2023-09-30T06:39:43;7.50;;;3.38;;
38717;SDS011;24468;52.128;9.278;2023-09-30T06:42:09;8.38;;;3.20;;
38717;SDS011;24468;52.128;9.278;2023-09-30T06:44:34;7.45;;;2.78;;
38717;SDS011;24468;52.128;9.278;2023-09-30T06:47:00;7.95;;;3.38;;
38717;SDS011;24468;52.128;9.278;2023-09-30T06:49:25;9.63;;;3.08;;
38717;SDS011;24468;52.128;9.278;2023-09-30T06:51:51;12.63;;;3.50;;
38717;SDS011;24468;52.128;9.278;2023-09-30T06:54:17;8.60;;;3.45;;
38717;SDS011;24468;52.128;9.278;2023-09-30T06:56:42;6.88;;;3.63;;
38717;SDS011;24468;52.128;9.278;2023-09-30T06:59:07;11.38;;;3.53;;
38717;SDS011;24468;52.128;9.278;2023-09-30T07:01:33;8.77;;;3.83;;
38717;SDS011;24468;52.128;9.278;2023-09-30T07:03:59;7.53;;;2.88;;
38717;SDS011;24468;52.128;9.278;2023-09-30T07:06:24;9.45;;;3.33;;
38717;SDS011;24468;52.128;9.278;2023-09-30T07:08:50;9.95;;;3.38;;
38717;SDS011;24468;52.128;9.278;2023-09-30T07:11:16;9.65;;;3.70;;
38717;SDS011;24468;52.128;9.278;2023-09-30T07:13:42;11.75;;;3.92;;
38717;SDS011;24468;52.128;9.278;2023-09-30T07:16:07;11.18;;;3.92;;
38717;SDS011;24468;52.128;9.278;2023-09-30T07:18:33;12.85;;;4.35;;
38717;SDS011;24468;52.128;9.278;2023-09-30T07:20:58;10.70;;;3.75;;
38717;SDS011;24468;52.128;9.278;2023-09-30T07:23:24;11.15;;;3.90;;
38717;SDS011;24468;52.128;9.278;2023-09-30T07:25:50;5.03;;;2.65;;
38717;SDS011;24468;52.128;9.278;2023-09-30T07:28:15;8.75;;;3.05;;
38717;SDS011;24468;52.128;9.278;2023-09-30T07:30:41;9.90;;;3.90;;
38717;SDS011;24468;52.128;9.278;2023-09-30T07:33:06;9.40;;;4.70;;
38717;SDS011;24468;52.128;9.278;2023-09-30T07:35:33;9.90;;;3.50;;
38717;SDS011;24468;52.128;9.278;2023-09-30T07:37:59;11.13;;;4.35;;
38717;SDS011;24468;52.128;9.278;2023-09-30T07:40:25;14.85;;;4.07;;
38717;SDS011;24468;52.128;9.278;2023-09-30T07:42:51;12.80;;;4.15;;
38717;SDS011;24468;52.128;9.278;2023-09-30T07:45:16;17.35;;;4.57;;
38717;SDS011;24468;52.128;9.278;2023-09-30T07:47:45;13.77;;;4.22;;
38717;SDS011;24468;52.128;9.278;2023-09-30T07:50:14;11.38;;;4.18;;
38717;SDS011;24468;52.128;9.278;2023-09-30T07:52:39;10.70;;;3.85;;
38717;SDS011;24468;52.128;9.278;2023-09-30T07:55:06;11.07;;;4.47;;
38717;SDS011;24468;52.128;9.278;2023-09-30T07:57:33;14.95;;;4.55;;
38717;SDS011;24468;52.128;9.278;2023-09-30T07:59:58;13.55;;;4.28;;
38717;SDS011;24468;52.128;9.278;2023-09-30T08:02:24;11.43;;;4.43;;
38717;SDS011;24468;52.128;9.278;2023-09-30T08:04:52;11.32;;;3.95;;
38717;SDS011;24468;52.128;9.278;2023-09-30T08:07:18;16.10;;;6.28;;
38717;SDS011;24468;52.128;9.278;2023-09-30T08:09:44;9.63;;;3.80;;
38717;SDS011;24468;52.128;9.278;2023-09-30T08:12:09;13.10;;;4.10;;
38717;SDS011;24468;52.128;9.278;2023-09-30T08:14:35;13.20;;;4.10;;
38717;SDS011;24468;52.128;9.278;2023-09-30T08:17:00;9.90;;;4.70;;
38717;SDS011;24468;52.128;9.278;2023-09-30T08:19:27;11.68;;;4.25;;
38717;SDS011;24468;52.128;9.278;2023-09-30T08:21:53;10.38;;;4.40;;
38717;SDS011;24468;52.128;9.278;2023-09-30T08:24:18;13.38;;;4.72;;
38717;SDS011;24468;52.128;9.278;2023-09-30T08:26:44;7.85;;;4.03;;
38717;SDS011;24468;52.128;9.278;2023-09-30T08:29:09;13.63;;;3.85;;
38717;SDS011;24468;52.128;9.278;2023-09-30T08:31:35;14.30;;;4.43;;
38717;SDS011;24468;52.128;9.278;2023-09-30T08:34:01;10.75;;;3.92;;
38717;SDS011;24468;52.128;9.278;2023-09-30T08:36:28;10.43;;;3.70;;
38717;SDS011;24468;52.128;9.278;2023-09-30T08:38:55;7.28;;;3.22;;
38717;SDS011;24468;52.128;9.278;2023-09-30T08:41:28;8.05;;;2.95;;
38717;SDS011;24468;52.128;9.278;2023-09-30T08:43:59;10.70;;;4.55;;
38717;SDS011;24468;52.128;9.278;2023-09-30T08:46:31;6.55;;;3.08;;
38717;SDS011;24468;52.128;9.278;2023-09-30T08:49:02;11.93;;;3.25;;
38717;SDS011;24468;52.128;9.278;2023-09-30T08:51:29;11.15;;;3.60;;
38717;SDS011;24468;52.128;9.278;2023-09-30T08:53:57;6.60;;;2.53;;
38717;SDS011;24468;52.128;9.278;2023-09-30T08:56:27;10.48;;;3.92;;
38717;SDS011;24468;52.128;9.278;2023-09-30T08:58:55;9.82;;;3.70;;
38717;SDS011;24468;52.128;9.278;2023-09-30T09:01:24;11.88;;;4.03;;
38717;SDS011;24468;52.128;9.278;2023-09-30T09:03:51;9.20;;;3.38;;
38717;SDS011;24468;52.128;9.278;2023-09-30T09:06:24;13.48;;;3.38;;
38717;SDS011;24468;52.128;9.278;2023-09-30T09:08:51;11.90;;;4.30;;
38717;SDS011;24468;52.128;9.278;2023-09-30T09:11:17;8.73;;;3.72;;
38717;SDS011;24468;52.128;9.278;2023-09-30T09:13:49;10.35;;;3.85;;
38717;SDS011;24468;52.128;9.278;2023-09-30T09:16:21;10.30;;;3.53;;
38717;SDS011;24468;52.128;9.278;2023-09-30T09:18:48;7.68;;;3.40;;
38717;SDS011;24468;52.128;9.278;2023-09-30T09:26:10;7.85;;;3.22;;
38717;SDS011;24468;52.128;9.278;2023-09-30T09:29:03;9.20;;;3.78;;
38717;SDS011;24468;52.128;9.278;2023-09-30T09:31:31;7.05;;;3.15;;
38717;SDS011;24468;52.128;9.278;2023-09-30T09:33:59;7.32;;;3.28;;
38717;SDS011;24468;52.128;9.278;2023-09-30T09:36:39;10.52;;;3.25;;
38717;SDS011;24468;52.128;9.278;2023-09-30T09:39:06;7.72;;;2.97;;
38717;SDS011;24468;52.128;9.278;2023-09-30T09:41:33;5.97;;;2.92;;
38717;SDS011;24468;52.128;9.278;2023-09-30T09:44:21;8.93;;;3.53;;
38717;SDS011;24468;52.128;9.278;2023-09-30T09:46:47;7.13;;;3.08;;
38717;SDS011;24468;52.128;9.278;2023-09-30T09:49:15;10.23;;;3.55;;
38717;SDS011;24468;52.128;9.278;2023-09-30T09:51:43;7.40;;;3.50;;
38717;SDS011;24468;52.128;9.278;2023-09-30T09:54:11;9.15;;;3.33;;
38717;SDS011;24468;52.128;9.278;2023-09-30T09:56:37;8.35;;;3.17;;
38717;SDS011;24468;52.128;9.278;2023-09-30T09:59:04;12.80;;;3.85;;
38717;SDS011;24468;52.128;9.278;2023-09-30T10:01:31;8.52;;;3.40;;
38717;SDS011;24468;52.128;9.278;2023-09-30T10:04:04;6.45;;;3.22;;
38717;SDS011;24468;52.128;9.278;2023-09-30T10:06:30;9.60;;;3.33;;
38717;SDS011;24468;52.128;9.278;2023-09-30T10:09:03;10.60;;;3.10;;
38717;SDS011;24468;52.128;9.278;2023-09-30T10:11:33;7.28;;;2.67;;
38717;SDS011;24468;52.128;9.278;2023-09-30T10:14:00;9.15;;;3.53;;
38717;SDS011;24468;52.128;9.278;2023-09-30T10:24:41;5.82;;;2.30;;
38717;SDS011;24468;52.128;9.278;2023-09-30T10:30:12;7.80;;;2.20;;
38717;SDS011;24468;52.128;9.278;2023-09-30T10:35:19;6.93;;;3.00;;
38717;SDS011;24468;52.128;9.278;2023-09-30T10:40:47;8.85;;;2.63;;
38717;SDS011;24468;52.128;9.278;2023-09-30T10:43:32;11.05;;;2.97;;
38717;SDS011;24468;52.128;9.278;2023-09-30T10:48:54;6.45;;;2.60;;
38717;SDS011;24468;52.128;9.278;2023-09-30T10:51:20;11.60;;;3.15;;
38717;SDS011;24468;52.128;9.278;2023-09-30T10:56:17;5.03;;;2.65;;
38717;SDS011;24468;52.128;9.278;2023-09-30T10:58:47;6.40;;;2.65;;
38717;SDS011;24468;52.128;9.278;2023-09-30T11:01:15;4.70;;;2.30;;
38717;SDS011;24468;52.128;9.278;2023-09-30T11:03:45;7.10;;;2.30;;
38717;SDS011;24468;52.128;9.278;2023-09-30T11:06:15;5.85;;;2.40;;
38717;SDS011;24468;52.128;9.278;2023-09-30T11:08:58;7.90;;;2.92;;
38717;SDS011;24468;52.128;9.278;2023-09-30T11:11:35;6.20;;;2.40;;
38717;SDS011;24468;52.128;9.278;2023-09-30T11:14:19;6.15;;;2.38;;
38717;SDS011;24468;52.128;9.278;2023-09-30T11:17:04;5.28;;;2.38;;
38717;SDS011;24468;52.128;9.278;2023-09-30T11:19:37;5.72;;;2.22;;
38717;SDS011;24468;52.128;9.278;2023-09-30T11:22:12;4.82;;;2.30;;
38717;SDS011;24468;52.128;9.278;2023-09-30T11:24:39;3.33;;;1.70;;
38717;SDS011;24468;52.128;9.278;2023-09-30T11:27:05;5.78;;;2.25;;
38717;SDS011;24468;52.128;9.278;2023-09-30T11:29:30;5.55;;;1.90;;
38717;SDS011;24468;52.128;9.278;2023-09-30T11:31:56;3.13;;;1.60;;
38717;SDS011;24468;52.128;9.278;2023-09-30T11:34:30;5.78;;;1.80;;
38717;SDS011;24468;52.128;9.278;2023-09-30T11:36:58;6.20;;;1.95;;
38717;SDS011;24468;52.128;9.278;2023-09-30T11:39:26;4.57;;;1.67;;
38717;SDS011;24468;52.128;9.278;2023-09-30T11:41:54;6.38;;;2.13;;
38717;SDS011;24468;52.128;9.278;2023-09-30T11:44:22;5.88;;;1.67;;
38717;SDS011;24468;52.128;9.278;2023-09-30T11:51:52;5.10;;;2.03;;
38717;SDS011;24468;52.128;9.278;2023-09-30T11:54:18;4.57;;;1.83;;
38717;SDS011;24468;52.128;9.278;2023-09-30T11:56:44;6.40;;;2.45;;
38717;SDS011;24468;52.128;9.278;2023-09-30T11:59:10;5.50;;;2.10;;
38717;SDS011;24468;52.128;9.278;2023-09-30T12:01:39;5.32;;;2.03;;
38717;SDS011;24468;52.128;9.278;2023-09-30T12:04:05;3.90;;;2.10;;
38717;SDS011;24468;52.128;9.278;2023-09-30T12:06:31;4.93;;;2.00;;
38717;SDS011;24468;52.128;9.278;2023-09-30T12:08:59;3.15;;;1.45;;
38717;SDS011;24468;52.128;9.278;2023-09-30T12:11:24;4.05;;;1.85;;
38717;SDS011;24468;52.128;9.278;2023-09-30T12:13:50;6.43;;;2.70;;
38717;SDS011;24468;52.128;9.278;2023-09-30T12:16:17;4.70;;;1.75;;
38717;SDS011;24468;52.128;9.278;2023-09-30T12:18:42;4.68;;;2.33;;
38717;SDS011;24468;52.128;9.278;2023-09-30T12:21:11;3.88;;;1.85;;
38717;SDS011;24468;52.128;9.278;2023-09-30T12:23:38;4.63;;;1.90;;
38717;SDS011;24468;52.128;9.278;2023-09-30T12:26:05;4.03;;;1.92;;
38717;SDS011;24468;52.128;9.278;2023-09-30T12:28:34;3.28;;;2.17;;
38717;SDS011;24468;52.128;9.278;2023-09-30T12:31:00;5.28;;;2.08;;
38717;SDS011;24468;52.128;9.278;2023-09-30T12:33:30;7.47;;;1.90;;
38717;SDS011;24468;52.128;9.278;2023-09-30T12:35:57;4.32;;;2.15;;
38717;SDS011;24468;52.128;9.278;2023-09-30T12:38:24;6.60;;;1.92;;
38717;SDS011;24468;52.128;9.278;2023-09-30T12:40:53;10.35;;;3.28;;
38717;SDS011;24468;52.128;9.278;2023-09-30T12:43:20;6.90;;;2.60;;
38717;SDS011;24468;52.128;9.278;2023-09-30T12:45:47;6.30;;;1.75;;
38717;SDS011;24468;52.128;9.278;2023-09-30T12:48:13;6.90;;;2.60;;
38717;SDS011;24468;52.128;9.278;2023-09-30T12:50:39;3.90;;;1.67;;
38717;SDS011;24468;52.128;9.278;2023-09-30T12:53:06;4.60;;;2.20;;
38717;SDS011;24468;52.128;9.278;2023-09-30T12:55:31;5.90;;;1.95;;
38717;SDS011;24468;52.128;9.278;2023-09-30T12:57:58;4.15;;;1.88;;
38717;SDS011;24468;52.128;9.278;2023-09-30T13:00:24;4.88;;;2.08;;
38717;SDS011;24468;52.128;9.278;2023-09-30T13:02:51;7.18;;;2.10;;
38717;SDS011;24468;52.128;9.278;2023-09-30T13:05:17;6.50;;;2.33;;
38717;SDS011;24468;52.128;9.278;2023-09-30T13:07:43;7.15;;;2.53;;
38717;SDS011;24468;52.128;9.278;2023-09-30T13:10:09;7.45;;;2.05;;
38717;SDS011;24468;52.128;9.278;2023-09-30T13:12:34;9.82;;;2.67;;
38717;SDS011;24468;52.128;9.278;2023-09-30T13:15:01;9.77;;;2.97;;
38717;SDS011;24468;52.128;9.278;2023-09-30T13:17:27;6.32;;;1.80;;
38717;SDS011;24468;52.128;9.278;2023-09-30T13:19:54;5.00;;;2.15;;
38717;SDS011;24468;52.128;9.278;2023-09-30T13:22:20;3.55;;;1.77;;
38717;SDS011;24468;52.128;9.278;2023-09-30T13:24:46;4.97;;;2.00;;
38717;SDS011;24468;52.128;9.278;2023-09-30T13:27:11;8.73;;;2.58;;
38717;SDS011;24468;52.128;9.278;2023-09-30T13:29:39;4.95;;;2.10;;
38717;SDS011;24468;52.128;9.278;2023-09-30T13:32:06;3.42;;;1.67;;
38717;SDS011;24468;52.128;9.278;2023-09-30T13:34:31;5.78;;;2.55;;
38717;SDS011;24468;52.128;9.278;2023-09-30T13:36:57;5.30;;;2.35;;
38717;SDS011;24468;52.128;9.278;2023-09-30T13:39:22;3.40;;;2.05;;
38717;SDS011;24468;52.128;9.278;2023-09-30T13:41:49;5.75;;;2.20;;
38717;SDS011;24468;52.128;9.278;2023-09-30T13:44:15;4.15;;;2.22;;
38717;SDS011;24468;52.128;9.278;2023-09-30T13:46:41;6.15;;;2.58;;
38717;SDS011;24468;52.128;9.278;2023-09-30T13:49:07;12.43;;;3.10;;
38717;SDS011;24468;52.128;9.278;2023-09-30T13:51:33;6.25;;;2.30;;
38717;SDS011;24468;52.128;9.278;2023-09-30T13:53:59;4.95;;;2.40;;
38717;SDS011;24468;52.128;9.278;2023-09-30T13:56:25;7.40;;;2.33;;
38717;SDS011;24468;52.128;9.278;2023-09-30T13:58:50;6.72;;;2.45;;
38717;SDS011;24468;52.128;9.278;2023-09-30T14:01:17;5.93;;;2.17;;
38717;SDS011;24468;52.128;9.278;2023-09-30T14:03:44;5.20;;;1.80;;
38717;SDS011;24468;52.128;9.278;2023-09-30T14:06:12;3.20;;;1.65;;
38717;SDS011;24468;52.128;9.278;2023-09-30T14:08:39;4.55;;;1.73;;
38717;SDS011;24468;52.128;9.278;2023-09-30T14:11:09;6.40;;;1.83;;
38717;SDS011;24468;52.128;9.278;2023-09-30T14:13:35;5.28;;;2.00;;
38717;SDS011;24468;52.128;9.278;2023-09-30T14:16:01;6.70;;;2.67;;
38717;SDS011;24468;52.128;9.278;2023-09-30T14:18:27;3.45;;;1.85;;
38717;SDS011;24468;52.128;9.278;2023-09-30T14:20:52;4.72;;;2.20;;
38717;SDS011;24468;52.128;9.278;2023-09-30T14:23:18;11.70;;;2.17;;
38717;SDS011;24468;52.128;9.278;2023-09-30T14:25:43;5.10;;;2.10;;
38717;SDS011;24468;52.128;9.278;2023-09-30T14:28:09;6.35;;;2.33;;
38717;SDS011;24468;52.128;9.278;2023-09-30T14:30:35;7.35;;;2.67;;
38717;SDS011;24468;52.128;9.278;2023-09-30T14:33:00;6.65;;;2.70;;
38717;SDS011;24468;52.128;9.278;2023-09-30T14:35:28;6.03;;;2.45;;
38717;SDS011;24468;52.128;9.278;2023-09-30T14:37:53;5.90;;;2.70;;
38717;SDS011;24468;52.128;9.278;2023-09-30T14:40:19;5.28;;;2.00;;
38717;SDS011;24468;52.128;9.278;2023-09-30T14:42:45;4.45;;;2.03;;
38717;SDS011;24468;52.128;9.278;2023-09-30T14:45:11;6.95;;;2.50;;
38717;SDS011;24468;52.128;9.278;2023-09-30T14:47:36;5.85;;;1.98;;
38717;SDS011;24468;52.128;9.278;2023-09-30T14:50:05;7.18;;;2.47;;
38717;SDS011;24468;52.128;9.278;2023-09-30T14:52:32;9.25;;;2.65;;
38717;SDS011;24468;52.128;9.278;2023-09-30T14:54:58;5.30;;;2.30;;
38717;SDS011;24468;52.128;9.278;2023-09-30T14:57:24;5.40;;;2.42;;
38717;SDS011;24468;52.128;9.278;2023-09-30T14:59:50;6.05;;;2.70;;
38717;SDS011;24468;52.128;9.278;2023-09-30T15:02:16;5.45;;;2.20;;
38717;SDS011;24468;52.128;9.278;2023-09-30T15:04:42;4.63;;;2.35;;
38717;SDS011;24468;52.128;9.278;2023-09-30T15:07:08;5.55;;;2.28;;
38717;SDS011;24468;52.128;9.278;2023-09-30T15:09:33;8.52;;;2.63;;
38717;SDS011;24468;52.128;9.278;2023-09-30T15:12:00;4.38;;;1.90;;
38717;SDS011;24468;52.128;9.278;2023-09-30T15:14:25;4.90;;;2.42;;